sensor_id;sensor_type;location;lat;lon;timestamp;temperature;humidity
50989;DHT22;37008;52.210;21.112;2023-07-31T00:00:49;17.60;99.90
50989;DHT22;37008;52.210;21.112;2023-07-31T00:03:14;17.60;99.90
50989;DHT22;37008;52.210;21.112;2023-07-31T00:05:40;17.50;99.90
50989;DHT22;37008;52.210;21.112;2023-07-31T00:08:06;17.50;99.90
50989;DHT22;37008;52.210;21.112;2023-07-31T00:10:31;17.40;99.90
50989;DHT22;37008;52.210;21.112;2023-07-31T00:12:58;17.30;99.90
50989;DHT22;37008;52.210;21.112;2023-07-31T00:15:24;17.20;99.90
50989;DHT22;37008;52.210;21.112;2023-07-31T00:17:50;17.20;99.90
50989;DHT22;37008;52.210;21.112;2023-07-31T00:20:15;17.20;99.90
50989;DHT22;37008;52.210;21.112;2023-07-31T00:22:41;17.20;99.90
50989;DHT22;37008;52.210;21.112;2023-07-31T00:25:07;17.20;99.90
50989;DHT22;37008;52.210;21.112;2023-07-31T00:27:32;17.20;99.90
50989;DHT22;37008;52.210;21.112;2023-07-31T00:29:58;17.10;99.90
50989;DHT22;37008;52.210;21.112;2023-07-31T00:32:24;17.20;99.90
50989;DHT22;37008;52.210;21.112;2023-07-31T00:34:49;17.20;99.90
50989;DHT22;37008;52.210;21.112;2023-07-31T00:37:15;17.10;99.90
50989;DHT22;37008;52.210;21.112;2023-07-31T00:39:41;17.10;99.90
50989;DHT22;37008;52.210;21.112;2023-07-31T00:42:07;17.10;99.90
50989;DHT22;37008;52.210;21.112;2023-07-31T00:44:33;17.10;99.90
50989;DHT22;37008;52.210;21.112;2023-07-31T00:46:59;17.10;99.90
50989;DHT22;37008;52.210;21.112;2023-07-31T00:49:25;17.10;99.90
50989;DHT22;37008;52.210;21.112;2023-07-31T00:51:51;17.10;99.90
50989;DHT22;37008;52.210;21.112;2023-07-31T00:54:17;17.10;99.90
50989;DHT22;37008;52.210;21.112;2023-07-31T00:56:45;17.10;99.90
50989;DHT22;37008;52.210;21.112;2023-07-31T00:59:11;17.00;99.90
50989;DHT22;37008;52.210;21.112;2023-07-31T01:01:37;16.90;99.90
50989;DHT22;37008;52.210;21.112;2023-07-31T01:04:03;16.90;99.90
50989;DHT22;37008;52.210;21.112;2023-07-31T01:09:40;17.00;99.90
50989;DHT22;37008;52.210;21.112;2023-07-31T01:12:09;16.90;99.90
50989;DHT22;37008;52.210;21.112;2023-07-31T01:14:37;16.90;99.90
50989;DHT22;37008;52.210;21.112;2023-07-31T01:17:03;16.90;99.90
50989;DHT22;37008;52.210;21.112;2023-07-31T01:19:29;16.90;99.90
50989;DHT22;37008;52.210;21.112;2023-07-31T01:28:05;16.80;99.90
50989;DHT22;37008;52.210;21.112;2023-07-31T01:30:33;16.80;99.90
50989;DHT22;37008;52.210;21.112;2023-07-31T01:33:01;16.80;99.90
50989;DHT22;37008;52.210;21.112;2023-07-31T01:35:33;16.70;99.90
50989;DHT22;37008;52.210;21.112;2023-07-31T01:37:59;16.70;99.90
50989;DHT22;37008;52.210;21.112;2023-07-31T01:40:24;16.70;99.90
50989;DHT22;37008;52.210;21.112;2023-07-31T01:42:50;16.70;99.90
50989;DHT22;37008;52.210;21.112;2023-07-31T01:45:15;16.70;99.90
50989;DHT22;37008;52.210;21.112;2023-07-31T01:47:41;16.70;99.90
50989;DHT22;37008;52.210;21.112;2023-07-31T01:50:07;16.70;99.90
50989;DHT22;37008;52.210;21.112;2023-07-31T01:52:33;16.70;99.90
50989;DHT22;37008;52.210;21.112;2023-07-31T01:54:58;16.70;99.90
50989;DHT22;37008;52.210;21.112;2023-07-31T01:57:24;16.70;99.90
50989;DHT22;37008;52.210;21.112;2023-07-31T01:59:49;16.60;99.90
50989;DHT22;37008;52.210;21.112;2023-07-31T02:02:15;16.60;99.90
50989;DHT22;37008;52.210;21.112;2023-07-31T02:04:41;16.60;99.90
50989;DHT22;37008;52.210;21.112;2023-07-31T02:07:07;16.60;99.90
50989;DHT22;37008;52.210;21.112;2023-07-31T02:09:32;16.60;99.90
50989;DHT22;37008;52.210;21.112;2023-07-31T02:11:58;16.60;99.90
50989;DHT22;37008;52.210;21.112;2023-07-31T02:14:23;16.50;99.90
50989;DHT22;37008;52.210;21.112;2023-07-31T02:16:50;16.50;99.90
50989;DHT22;37008;52.210;21.112;2023-07-31T02:19:15;16.40;99.90
50989;DHT22;37008;52.210;21.112;2023-07-31T02:21:41;16.40;99.90
50989;DHT22;37008;52.210;21.112;2023-07-31T02:24:06;16.30;99.90
50989;DHT22;37008;52.210;21.112;2023-07-31T02:26:32;16.30;99.90
50989;DHT22;37008;52.210;21.112;2023-07-31T02:28:57;16.10;99.90
50989;DHT22;37008;52.210;21.112;2023-07-31T02:31:23;16.20;99.90
50989;DHT22;37008;52.210;21.112;2023-07-31T02:33:48;16.20;99.90
50989;DHT22;37008;52.210;21.112;2023-07-31T02:36:14;16.10;99.90
50989;DHT22;37008;52.210;21.112;2023-07-31T02:38:40;16.10;99.90
50989;DHT22;37008;52.210;21.112;2023-07-31T02:41:06;16.20;99.90
50989;DHT22;37008;52.210;21.112;2023-07-31T02:43:31;16.20;99.90
50989;DHT22;37008;52.210;21.112;2023-07-31T02:45:57;16.20;99.90
50989;DHT22;37008;52.210;21.112;2023-07-31T02:48:23;16.20;99.90
50989;DHT22;37008;52.210;21.112;2023-07-31T02:50:48;16.20;99.90
50989;DHT22;37008;52.210;21.112;2023-07-31T02:53:14;16.20;99.90
50989;DHT22;37008;52.210;21.112;2023-07-31T02:55:40;16.30;99.90
50989;DHT22;37008;52.210;21.112;2023-07-31T02:58:06;16.30;99.90
50989;DHT22;37008;52.210;21.112;2023-07-31T03:00:31;16.40;99.90
50989;DHT22;37008;52.210;21.112;2023-07-31T03:02:57;16.40;99.90
50989;DHT22;37008;52.210;21.112;2023-07-31T03:05:22;16.50;99.90
50989;DHT22;37008;52.210;21.112;2023-07-31T03:07:48;16.60;99.90
50989;DHT22;37008;52.210;21.112;2023-07-31T03:10:14;16.60;99.90
50989;DHT22;37008;52.210;21.112;2023-07-31T03:12:40;16.60;99.90
50989;DHT22;37008;52.210;21.112;2023-07-31T03:15:06;16.70;99.90
50989;DHT22;37008;52.210;21.112;2023-07-31T03:17:32;16.70;99.90
50989;DHT22;37008;52.210;21.112;2023-07-31T03:19:58;16.70;99.90
50989;DHT22;37008;52.210;21.112;2023-07-31T03:22:23;16.80;99.90
50989;DHT22;37008;52.210;21.112;2023-07-31T03:24:49;16.80;99.90
50989;DHT22;37008;52.210;21.112;2023-07-31T03:27:14;16.90;99.90
50989;DHT22;37008;52.210;21.112;2023-07-31T03:29:40;16.90;99.90
50989;DHT22;37008;52.210;21.112;2023-07-31T03:32:06;17.00;99.90
50989;DHT22;37008;52.210;21.112;2023-07-31T03:34:32;17.00;99.90
50989;DHT22;37008;52.210;21.112;2023-07-31T03:36:59;17.00;99.90
50989;DHT22;37008;52.210;21.112;2023-07-31T03:39:25;17.10;99.90
50989;DHT22;37008;52.210;21.112;2023-07-31T03:41:50;17.10;99.90
50989;DHT22;37008;52.210;21.112;2023-07-31T03:44:16;17.20;99.90
50989;DHT22;37008;52.210;21.112;2023-07-31T03:46:42;17.20;99.90
50989;DHT22;37008;52.210;21.112;2023-07-31T03:49:07;17.20;99.90
50989;DHT22;37008;52.210;21.112;2023-07-31T03:51:33;17.20;99.90
50989;DHT22;37008;52.210;21.112;2023-07-31T03:53:58;17.30;99.90
50989;DHT22;37008;52.210;21.112;2023-07-31T03:56:24;17.30;99.90
50989;DHT22;37008;52.210;21.112;2023-07-31T03:58:50;17.30;99.90
50989;DHT22;37008;52.210;21.112;2023-07-31T04:01:15;17.40;99.90
50989;DHT22;37008;52.210;21.112;2023-07-31T04:03:41;17.40;99.90
50989;DHT22;37008;52.210;21.112;2023-07-31T04:06:07;17.40;99.90
50989;DHT22;37008;52.210;21.112;2023-07-31T04:08:33;17.40;99.90
50989;DHT22;37008;52.210;21.112;2023-07-31T04:10:58;17.50;99.90
50989;DHT22;37008;52.210;21.112;2023-07-31T04:13:24;17.50;99.90
50989;DHT22;37008;52.210;21.112;2023-07-31T04:15:52;17.50;99.90
50989;DHT22;37008;52.210;21.112;2023-07-31T04:18:19;17.50;99.90
50989;DHT22;37008;52.210;21.112;2023-07-31T04:20:45;17.40;99.90
50989;DHT22;37008;52.210;21.112;2023-07-31T04:23:11;17.50;99.90
50989;DHT22;37008;52.210;21.112;2023-07-31T04:25:37;17.50;99.90
50989;DHT22;37008;52.210;21.112;2023-07-31T04:28:02;17.50;99.90
50989;DHT22;37008;52.210;21.112;2023-07-31T04:30:28;17.40;99.90
50989;DHT22;37008;52.210;21.112;2023-07-31T04:32:54;17.40;99.90
50989;DHT22;37008;52.210;21.112;2023-07-31T04:35:19;17.40;99.90
50989;DHT22;37008;52.210;21.112;2023-07-31T04:37:45;17.40;99.90
50989;DHT22;37008;52.210;21.112;2023-07-31T04:40:15;17.40;99.90
50989;DHT22;37008;52.210;21.112;2023-07-31T04:42:41;17.40;99.90
50989;DHT22;37008;52.210;21.112;2023-07-31T04:45:08;17.40;99.90
50989;DHT22;37008;52.210;21.112;2023-07-31T04:47:34;17.50;99.90
50989;DHT22;37008;52.210;21.112;2023-07-31T04:50:00;17.50;99.90
50989;DHT22;37008;52.210;21.112;2023-07-31T04:52:25;17.50;99.90
50989;DHT22;37008;52.210;21.112;2023-07-31T04:54:51;17.40;99.90
50989;DHT22;37008;52.210;21.112;2023-07-31T04:57:17;17.50;99.90
50989;DHT22;37008;52.210;21.112;2023-07-31T04:59:42;17.60;99.90
50989;DHT22;37008;52.210;21.112;2023-07-31T05:02:08;17.60;99.90
50989;DHT22;37008;52.210;21.112;2023-07-31T05:04:34;17.60;99.90
50989;DHT22;37008;52.210;21.112;2023-07-31T05:06:59;17.60;99.90
50989;DHT22;37008;52.210;21.112;2023-07-31T05:09:25;17.60;99.90
50989;DHT22;37008;52.210;21.112;2023-07-31T05:11:51;17.70;99.90
50989;DHT22;37008;52.210;21.112;2023-07-31T05:14:16;17.70;99.90
50989;DHT22;37008;52.210;21.112;2023-07-31T05:16:42;17.80;99.90
50989;DHT22;37008;52.210;21.112;2023-07-31T05:19:07;17.80;99.90
50989;DHT22;37008;52.210;21.112;2023-07-31T05:21:33;17.90;99.90
50989;DHT22;37008;52.210;21.112;2023-07-31T05:23:59;18.00;99.90
50989;DHT22;37008;52.210;21.112;2023-07-31T05:26:25;18.00;99.90
50989;DHT22;37008;52.210;21.112;2023-07-31T05:28:50;18.00;99.90
50989;DHT22;37008;52.210;21.112;2023-07-31T05:31:16;18.10;99.90
50989;DHT22;37008;52.210;21.112;2023-07-31T05:33:41;18.20;99.90
50989;DHT22;37008;52.210;21.112;2023-07-31T05:36:07;18.20;99.90
50989;DHT22;37008;52.210;21.112;2023-07-31T05:38:32;18.30;99.90
50989;DHT22;37008;52.210;21.112;2023-07-31T05:40:58;18.30;99.90
50989;DHT22;37008;52.210;21.112;2023-07-31T05:43:23;18.40;99.90
50989;DHT22;37008;52.210;21.112;2023-07-31T05:45:50;18.40;99.90
50989;DHT22;37008;52.210;21.112;2023-07-31T05:48:16;18.50;99.90
50989;DHT22;37008;52.210;21.112;2023-07-31T05:50:43;18.50;99.90
50989;DHT22;37008;52.210;21.112;2023-07-31T05:53:09;18.50;99.90
50989;DHT22;37008;52.210;21.112;2023-07-31T05:55:35;18.50;99.90
50989;DHT22;37008;52.210;21.112;2023-07-31T05:58:01;18.50;99.90
50989;DHT22;37008;52.210;21.112;2023-07-31T06:00:27;18.40;99.90
50989;DHT22;37008;52.210;21.112;2023-07-31T06:02:53;18.40;99.90
50989;DHT22;37008;52.210;21.112;2023-07-31T06:05:18;18.40;99.90
50989;DHT22;37008;52.210;21.112;2023-07-31T06:07:44;18.40;99.90
50989;DHT22;37008;52.210;21.112;2023-07-31T06:10:10;18.40;99.90
50989;DHT22;37008;52.210;21.112;2023-07-31T06:12:36;18.30;99.90
50989;DHT22;37008;52.210;21.112;2023-07-31T06:15:02;18.30;99.90
50989;DHT22;37008;52.210;21.112;2023-07-31T06:17:28;18.30;99.90
50989;DHT22;37008;52.210;21.112;2023-07-31T06:19:55;18.30;99.90
50989;DHT22;37008;52.210;21.112;2023-07-31T06:22:21;18.30;99.90
50989;DHT22;37008;52.210;21.112;2023-07-31T06:24:47;18.40;99.90
50989;DHT22;37008;52.210;21.112;2023-07-31T06:27:12;18.50;99.90
50989;DHT22;37008;52.210;21.112;2023-07-31T06:29:38;18.50;99.90
50989;DHT22;37008;52.210;21.112;2023-07-31T06:32:04;18.50;99.90
50989;DHT22;37008;52.210;21.112;2023-07-31T06:34:30;18.60;99.90
50989;DHT22;37008;52.210;21.112;2023-07-31T06:36:56;18.60;99.90
50989;DHT22;37008;52.210;21.112;2023-07-31T06:39:22;18.50;99.90
50989;DHT22;37008;52.210;21.112;2023-07-31T06:41:48;18.50;99.90
50989;DHT22;37008;52.210;21.112;2023-07-31T06:44:13;18.40;99.90
50989;DHT22;37008;52.210;21.112;2023-07-31T06:46:39;18.30;99.90
50989;DHT22;37008;52.210;21.112;2023-07-31T06:49:05;18.30;99.90
50989;DHT22;37008;52.210;21.112;2023-07-31T06:51:30;18.20;99.90
50989;DHT22;37008;52.210;21.112;2023-07-31T06:53:57;18.10;99.90
50989;DHT22;37008;52.210;21.112;2023-07-31T06:56:23;18.10;99.90
50989;DHT22;37008;52.210;21.112;2023-07-31T06:58:49;18.10;99.90
50989;DHT22;37008;52.210;21.112;2023-07-31T07:01:14;18.10;99.90
50989;DHT22;37008;52.210;21.112;2023-07-31T07:03:40;18.10;99.90
50989;DHT22;37008;52.210;21.112;2023-07-31T07:06:05;18.10;99.90
50989;DHT22;37008;52.210;21.112;2023-07-31T07:08:31;18.20;99.90
50989;DHT22;37008;52.210;21.112;2023-07-31T07:10:57;18.20;99.90
50989;DHT22;37008;52.210;21.112;2023-07-31T07:13:22;18.20;99.90
50989;DHT22;37008;52.210;21.112;2023-07-31T07:15:49;18.30;99.90
50989;DHT22;37008;52.210;21.112;2023-07-31T07:18:15;18.30;99.90
50989;DHT22;37008;52.210;21.112;2023-07-31T07:20:45;18.50;99.90
50989;DHT22;37008;52.210;21.112;2023-07-31T07:23:11;18.60;99.90
50989;DHT22;37008;52.210;21.112;2023-07-31T07:25:46;18.80;99.90
50989;DHT22;37008;52.210;21.112;2023-07-31T07:28:12;19.00;99.90
50989;DHT22;37008;52.210;21.112;2023-07-31T07:30:38;19.10;99.90
50989;DHT22;37008;52.210;21.112;2023-07-31T07:33:04;19.20;99.90
50989;DHT22;37008;52.210;21.112;2023-07-31T07:35:30;19.40;99.90
50989;DHT22;37008;52.210;21.112;2023-07-31T07:37:55;19.50;99.90
50989;DHT22;37008;52.210;21.112;2023-07-31T07:40:22;19.60;99.90
50989;DHT22;37008;52.210;21.112;2023-07-31T07:42:47;19.60;99.90
50989;DHT22;37008;52.210;21.112;2023-07-31T07:45:13;19.80;99.90
50989;DHT22;37008;52.210;21.112;2023-07-31T07:47:40;19.90;99.90
50989;DHT22;37008;52.210;21.112;2023-07-31T07:50:07;20.10;99.40
50989;DHT22;37008;52.210;21.112;2023-07-31T07:52:32;20.20;97.70
50989;DHT22;37008;52.210;21.112;2023-07-31T07:54:58;20.30;96.40
50989;DHT22;37008;52.210;21.112;2023-07-31T07:57:23;20.30;95.20
50989;DHT22;37008;52.210;21.112;2023-07-31T07:59:49;20.30;94.40
50989;DHT22;37008;52.210;21.112;2023-07-31T08:02:15;20.40;94.00
50989;DHT22;37008;52.210;21.112;2023-07-31T08:04:40;20.40;93.60
50989;DHT22;37008;52.210;21.112;2023-07-31T08:07:06;20.50;92.90
50989;DHT22;37008;52.210;21.112;2023-07-31T08:09:32;20.50;92.40
50989;DHT22;37008;52.210;21.112;2023-07-31T08:11:57;20.60;92.70
50989;DHT22;37008;52.210;21.112;2023-07-31T08:14:27;20.70;91.80
50989;DHT22;37008;52.210;21.112;2023-07-31T08:16:53;20.80;91.00
50989;DHT22;37008;52.210;21.112;2023-07-31T08:19:18;20.90;90.60
50989;DHT22;37008;52.210;21.112;2023-07-31T08:21:44;21.00;90.10
50989;DHT22;37008;52.210;21.112;2023-07-31T08:24:10;21.10;89.10
50989;DHT22;37008;52.210;21.112;2023-07-31T08:26:35;21.00;87.60
50989;DHT22;37008;52.210;21.112;2023-07-31T08:29:01;21.10;88.10
50989;DHT22;37008;52.210;21.112;2023-07-31T08:31:26;21.20;87.20
50989;DHT22;37008;52.210;21.112;2023-07-31T08:34:01;21.30;85.80
50989;DHT22;37008;52.210;21.112;2023-07-31T08:36:27;21.40;83.40
50989;DHT22;37008;52.210;21.112;2023-07-31T08:38:53;21.50;81.60
50989;DHT22;37008;52.210;21.112;2023-07-31T08:41:19;21.60;79.00
50989;DHT22;37008;52.210;21.112;2023-07-31T08:43:51;21.60;77.20
50989;DHT22;37008;52.210;21.112;2023-07-31T08:46:17;21.60;76.00
50989;DHT22;37008;52.210;21.112;2023-07-31T08:48:44;21.70;75.10
50989;DHT22;37008;52.210;21.112;2023-07-31T08:51:19;21.80;73.80
50989;DHT22;37008;52.210;21.112;2023-07-31T08:53:45;21.90;71.50
50989;DHT22;37008;52.210;21.112;2023-07-31T08:56:13;21.90;71.10
50989;DHT22;37008;52.210;21.112;2023-07-31T08:58:39;21.90;70.50
50989;DHT22;37008;52.210;21.112;2023-07-31T09:01:08;21.90;69.40
50989;DHT22;37008;52.210;21.112;2023-07-31T09:03:36;21.80;69.60
50989;DHT22;37008;52.210;21.112;2023-07-31T09:09:06;21.90;68.70
50989;DHT22;37008;52.210;21.112;2023-07-31T09:11:44;21.90;68.90
50989;DHT22;37008;52.210;21.112;2023-07-31T09:14:53;22.00;68.80
50989;DHT22;37008;52.210;21.112;2023-07-31T09:17:33;22.10;68.80
50989;DHT22;37008;52.210;21.112;2023-07-31T09:20:19;22.30;68.10
50989;DHT22;37008;52.210;21.112;2023-07-31T09:22:47;22.50;66.70
50989;DHT22;37008;52.210;21.112;2023-07-31T09:25:21;22.50;66.30
50989;DHT22;37008;52.210;21.112;2023-07-31T09:30:16;22.70;65.20
50989;DHT22;37008;52.210;21.112;2023-07-31T09:32:43;22.80;63.90
50989;DHT22;37008;52.210;21.112;2023-07-31T09:35:28;22.90;63.70
50989;DHT22;37008;52.210;21.112;2023-07-31T09:38:05;23.10;63.20
50989;DHT22;37008;52.210;21.112;2023-07-31T09:40:36;23.30;63.70
50989;DHT22;37008;52.210;21.112;2023-07-31T09:46:13;23.60;61.30
50989;DHT22;37008;52.210;21.112;2023-07-31T09:48:39;23.70;60.00
50989;DHT22;37008;52.210;21.112;2023-07-31T09:51:11;23.80;59.10
50989;DHT22;37008;52.210;21.112;2023-07-31T09:53:37;23.80;58.50
50989;DHT22;37008;52.210;21.112;2023-07-31T09:56:03;23.80;58.70
50989;DHT22;37008;52.210;21.112;2023-07-31T09:58:34;23.80;58.00
50989;DHT22;37008;52.210;21.112;2023-07-31T10:01:02;23.70;58.40
50989;DHT22;37008;52.210;21.112;2023-07-31T10:03:32;23.60;58.20
50989;DHT22;37008;52.210;21.112;2023-07-31T10:06:00;23.50;58.10
50989;DHT22;37008;52.210;21.112;2023-07-31T10:08:30;23.40;56.60
50989;DHT22;37008;52.210;21.112;2023-07-31T10:11:01;23.40;56.70
50989;DHT22;37008;52.210;21.112;2023-07-31T10:13:34;23.30;56.90
50989;DHT22;37008;52.210;21.112;2023-07-31T10:16:02;23.30;57.20
50989;DHT22;37008;52.210;21.112;2023-07-31T10:18:28;23.30;57.50
50989;DHT22;37008;52.210;21.112;2023-07-31T10:20:55;23.30;57.40
50989;DHT22;37008;52.210;21.112;2023-07-31T10:23:22;23.40;56.60
50989;DHT22;37008;52.210;21.112;2023-07-31T10:25:50;23.40;56.70
50989;DHT22;37008;52.210;21.112;2023-07-31T10:28:18;23.50;55.90
50989;DHT22;37008;52.210;21.112;2023-07-31T10:30:44;23.60;55.70
50989;DHT22;37008;52.210;21.112;2023-07-31T10:33:10;23.60;55.00
50989;DHT22;37008;52.210;21.112;2023-07-31T10:35:43;23.70;55.40
50989;DHT22;37008;52.210;21.112;2023-07-31T10:38:12;23.80;53.80
50989;DHT22;37008;52.210;21.112;2023-07-31T10:40:38;23.70;53.30
50989;DHT22;37008;52.210;21.112;2023-07-31T10:43:05;23.60;53.00
50989;DHT22;37008;52.210;21.112;2023-07-31T10:45:32;23.60;53.50
50989;DHT22;37008;52.210;21.112;2023-07-31T10:48:06;23.70;53.40
50989;DHT22;37008;52.210;21.112;2023-07-31T10:50:55;23.90;53.60
50989;DHT22;37008;52.210;21.112;2023-07-31T10:53:29;24.10;53.60
50989;DHT22;37008;52.210;21.112;2023-07-31T10:56:03;24.10;52.60
50989;DHT22;37008;52.210;21.112;2023-07-31T10:58:30;24.20;53.10
50989;DHT22;37008;52.210;21.112;2023-07-31T11:00:59;24.20;52.90
50989;DHT22;37008;52.210;21.112;2023-07-31T11:03:26;24.30;52.00
50989;DHT22;37008;52.210;21.112;2023-07-31T11:05:59;24.40;50.80
50989;DHT22;37008;52.210;21.112;2023-07-31T11:08:41;24.30;50.60
50989;DHT22;37008;52.210;21.112;2023-07-31T11:11:09;24.20;50.20
50989;DHT22;37008;52.210;21.112;2023-07-31T11:13:51;24.00;50.70
50989;DHT22;37008;52.210;21.112;2023-07-31T11:16:21;23.90;51.10
50989;DHT22;37008;52.210;21.112;2023-07-31T11:18:48;23.80;50.80
50989;DHT22;37008;52.210;21.112;2023-07-31T11:21:16;23.80;50.80
50989;DHT22;37008;52.210;21.112;2023-07-31T11:23:50;23.90;50.90
50989;DHT22;37008;52.210;21.112;2023-07-31T11:26:17;24.00;50.30
50989;DHT22;37008;52.210;21.112;2023-07-31T11:28:48;24.00;50.00
50989;DHT22;37008;52.210;21.112;2023-07-31T11:31:14;24.20;49.70
50989;DHT22;37008;52.210;21.112;2023-07-31T11:33:39;24.30;49.30
50989;DHT22;37008;52.210;21.112;2023-07-31T11:36:15;24.50;48.90
50989;DHT22;37008;52.210;21.112;2023-07-31T11:38:41;24.80;49.40
50989;DHT22;37008;52.210;21.112;2023-07-31T11:41:07;24.90;48.20
50989;DHT22;37008;52.210;21.112;2023-07-31T11:43:33;25.00;48.40
50989;DHT22;37008;52.210;21.112;2023-07-31T11:46:01;25.10;48.00
50989;DHT22;37008;52.210;21.112;2023-07-31T11:48:33;25.10;47.70
50989;DHT22;37008;52.210;21.112;2023-07-31T11:51:02;25.20;48.00
50989;DHT22;37008;52.210;21.112;2023-07-31T11:53:38;25.20;48.00
50989;DHT22;37008;52.210;21.112;2023-07-31T11:56:07;25.10;47.60
50989;DHT22;37008;52.210;21.112;2023-07-31T11:58:35;25.10;46.40
50989;DHT22;37008;52.210;21.112;2023-07-31T12:01:02;25.00;46.50
50989;DHT22;37008;52.210;21.112;2023-07-31T12:03:28;24.90;46.80
50989;DHT22;37008;52.210;21.112;2023-07-31T12:05:59;24.90;47.20
50989;DHT22;37008;52.210;21.112;2023-07-31T12:08:26;24.90;47.40
50989;DHT22;37008;52.210;21.112;2023-07-31T12:10:52;24.80;47.20
50989;DHT22;37008;52.210;21.112;2023-07-31T12:13:24;24.70;47.40
50989;DHT22;37008;52.210;21.112;2023-07-31T12:15:54;24.50;47.70
50989;DHT22;37008;52.210;21.112;2023-07-31T12:18:22;24.40;48.10
50989;DHT22;37008;52.210;21.112;2023-07-31T12:20:58;24.30;48.40
50989;DHT22;37008;52.210;21.112;2023-07-31T12:23:29;24.20;48.90
50989;DHT22;37008;52.210;21.112;2023-07-31T12:26:02;24.30;49.80
50989;DHT22;37008;52.210;21.112;2023-07-31T12:28:48;24.20;49.90
50989;DHT22;37008;52.210;21.112;2023-07-31T12:31:15;24.20;50.00
50989;DHT22;37008;52.210;21.112;2023-07-31T12:33:43;24.20;50.60
50989;DHT22;37008;52.210;21.112;2023-07-31T12:36:14;24.20;51.00
50989;DHT22;37008;52.210;21.112;2023-07-31T12:38:41;24.30;51.00
50989;DHT22;37008;52.210;21.112;2023-07-31T12:41:07;24.30;50.40
50989;DHT22;37008;52.210;21.112;2023-07-31T12:43:36;24.40;50.30
50989;DHT22;37008;52.210;21.112;2023-07-31T12:46:03;24.30;50.10
50989;DHT22;37008;52.210;21.112;2023-07-31T12:48:29;24.20;50.10
50989;DHT22;37008;52.210;21.112;2023-07-31T12:50:55;24.10;49.90
50989;DHT22;37008;52.210;21.112;2023-07-31T12:53:20;24.00;50.40
50989;DHT22;37008;52.210;21.112;2023-07-31T12:55:46;24.00;50.80
50989;DHT22;37008;52.210;21.112;2023-07-31T12:58:12;23.90;51.60
50989;DHT22;37008;52.210;21.112;2023-07-31T13:00:47;24.00;51.60
50989;DHT22;37008;52.210;21.112;2023-07-31T13:03:12;24.00;51.50
50989;DHT22;37008;52.210;21.112;2023-07-31T13:05:44;24.20;52.00
50989;DHT22;37008;52.210;21.112;2023-07-31T13:08:09;24.30;51.40
50989;DHT22;37008;52.210;21.112;2023-07-31T13:10:35;24.40;50.10
50989;DHT22;37008;52.210;21.112;2023-07-31T13:13:09;24.40;50.00
50989;DHT22;37008;52.210;21.112;2023-07-31T13:15:35;24.50;50.90
50989;DHT22;37008;52.210;21.112;2023-07-31T13:18:01;24.50;51.10
50989;DHT22;37008;52.210;21.112;2023-07-31T13:20:31;24.60;51.20
50989;DHT22;37008;52.210;21.112;2023-07-31T13:22:56;24.70;50.20
50989;DHT22;37008;52.210;21.112;2023-07-31T13:25:22;24.70;49.30
50989;DHT22;37008;52.210;21.112;2023-07-31T13:27:48;24.80;47.80
50989;DHT22;37008;52.210;21.112;2023-07-31T13:30:13;24.80;47.10
50989;DHT22;37008;52.210;21.112;2023-07-31T13:32:39;24.70;45.70
50989;DHT22;37008;52.210;21.112;2023-07-31T13:35:08;24.70;46.30
50989;DHT22;37008;52.210;21.112;2023-07-31T13:37:34;24.90;46.40
50989;DHT22;37008;52.210;21.112;2023-07-31T13:40:00;25.00;45.70
50989;DHT22;37008;52.210;21.112;2023-07-31T13:42:26;25.00;45.70
50989;DHT22;37008;52.210;21.112;2023-07-31T13:44:54;25.10;47.10
50989;DHT22;37008;52.210;21.112;2023-07-31T13:47:21;25.20;47.80
50989;DHT22;37008;52.210;21.112;2023-07-31T13:49:47;25.40;47.80
50989;DHT22;37008;52.210;21.112;2023-07-31T13:52:12;25.50;47.30
50989;DHT22;37008;52.210;21.112;2023-07-31T13:54:38;25.50;46.10
50989;DHT22;37008;52.210;21.112;2023-07-31T13:57:05;25.50;45.60
50989;DHT22;37008;52.210;21.112;2023-07-31T13:59:31;25.50;46.00
50989;DHT22;37008;52.210;21.112;2023-07-31T14:01:59;25.70;46.20
50989;DHT22;37008;52.210;21.112;2023-07-31T14:04:25;25.80;45.90
50989;DHT22;37008;52.210;21.112;2023-07-31T14:06:56;25.80;46.10
50989;DHT22;37008;52.210;21.112;2023-07-31T14:09:22;25.90;46.10
50989;DHT22;37008;52.210;21.112;2023-07-31T14:11:48;26.00;45.90
50989;DHT22;37008;52.210;21.112;2023-07-31T14:14:13;26.00;45.80
50989;DHT22;37008;52.210;21.112;2023-07-31T14:16:47;25.90;46.30
50989;DHT22;37008;52.210;21.112;2023-07-31T14:19:13;25.80;46.80
50989;DHT22;37008;52.210;21.112;2023-07-31T14:21:38;25.60;46.90
50989;DHT22;37008;52.210;21.112;2023-07-31T14:24:04;25.30;46.50
50989;DHT22;37008;52.210;21.112;2023-07-31T14:26:30;25.10;46.90
50989;DHT22;37008;52.210;21.112;2023-07-31T14:28:56;24.90;48.50
50989;DHT22;37008;52.210;21.112;2023-07-31T14:31:21;24.70;49.30
50989;DHT22;37008;52.210;21.112;2023-07-31T14:33:52;24.50;49.40
50989;DHT22;37008;52.210;21.112;2023-07-31T14:36:17;24.40;50.20
50989;DHT22;37008;52.210;21.112;2023-07-31T14:38:46;24.40;50.30
50989;DHT22;37008;52.210;21.112;2023-07-31T14:41:12;24.40;51.00
50989;DHT22;37008;52.210;21.112;2023-07-31T14:43:37;24.40;51.50
50989;DHT22;37008;52.210;21.112;2023-07-31T14:46:04;24.40;52.10
50989;DHT22;37008;52.210;21.112;2023-07-31T14:48:31;24.40;52.10
50989;DHT22;37008;52.210;21.112;2023-07-31T14:50:56;24.40;52.30
50989;DHT22;37008;52.210;21.112;2023-07-31T14:53:22;24.60;51.90
50989;DHT22;37008;52.210;21.112;2023-07-31T14:55:48;24.80;51.80
50989;DHT22;37008;52.210;21.112;2023-07-31T14:58:17;25.10;51.90
50989;DHT22;37008;52.210;21.112;2023-07-31T15:00:43;25.50;51.90
50989;DHT22;37008;52.210;21.112;2023-07-31T15:03:09;25.80;51.40
50989;DHT22;37008;52.210;21.112;2023-07-31T15:05:38;26.00;49.00
50989;DHT22;37008;52.210;21.112;2023-07-31T15:08:03;26.00;48.30
50989;DHT22;37008;52.210;21.112;2023-07-31T15:10:29;25.90;48.20
50989;DHT22;37008;52.210;21.112;2023-07-31T15:12:55;25.60;48.70
50989;DHT22;37008;52.210;21.112;2023-07-31T15:15:20;25.20;48.40
50989;DHT22;37008;52.210;21.112;2023-07-31T15:17:46;24.90;49.10
50989;DHT22;37008;52.210;21.112;2023-07-31T15:20:12;24.50;48.90
50989;DHT22;37008;52.210;21.112;2023-07-31T15:22:38;24.30;49.30
50989;DHT22;37008;52.210;21.112;2023-07-31T15:25:03;24.20;49.50
50989;DHT22;37008;52.210;21.112;2023-07-31T15:27:29;24.00;49.70
50989;DHT22;37008;52.210;21.112;2023-07-31T15:29:55;24.00;51.60
50989;DHT22;37008;52.210;21.112;2023-07-31T15:32:21;23.90;54.50